Bruce, Wisconsin
Current Conditions -  °F | °C
As of 1:55 AM on Tuesday 21 Oct 2014 (Local Time) from KRCX Reporting Station
Overcast Overcast  
Wind Chill: 42°   Ceiling: 3100
Heat Index: 46°   Visibility: 10mi
Dew Point: 38°   Wind: 6mph
Humidity: 75%   Direction: 50°NE
Pressure: 30.13"   Gusts: NA
Location:  45.46°N, 91.27°W
Report Text: KRCX 210655Z AUTO 05005KT 10SM OVC031 08/03 A3013 RMK AO2 T00750034
Loading
Personal Weather Stations






























Interactive Weather Map
Tropical Storm Tracking
New forecast layout! Learn more

10-Day Weather Forecast

Advertisements
Track Severe Weather on mobile